Time;durP1;ratioP1;P1;durP2;ratioP2;P2;SDS_P1;SDS_P2;PMS_P1;PMS_P2;Temp;Humidity;BMP_temperature;BMP_pressure;BME280_temperature;BME280_humidity;BME280_pressure;Samples;Min_cycle;Max_cycle;Signal;HPM_P1;HPM_P2
2024/01/06 00:01:38;;;;;;;6.00;5.10;;;7.00;99.90;;;;;;5054449;28;20211;-87
2024/01/06 00:04:04;;;;;;;5.47;4.73;;;6.90;99.90;;;;;;5049544;28;20245;-89
2024/01/06 00:06:29;;;;;;;9.90;5.70;;;6.90;99.90;;;;;;5071124;28;20580;-87
2024/01/06 00:08:55;;;;;;;6.70;5.87;;;6.30;99.90;;;;;;5070658;28;20186;-87
2024/01/06 00:11:21;;;;;;;6.00;5.43;;;;;;;;;;5071831;28;20264;-88
2024/01/06 00:13:47;;;;;;;5.60;4.93;;;6.80;99.90;;;;;;5068240;28;20830;-87
2024/01/06 00:16:13;;;;;;;5.83;4.80;;;6.90;99.90;;;;;;5086996;28;20190;-87
2024/01/06 00:18:39;;;;;;;12.13;5.20;;;7.20;99.90;;;;;;5086612;28;20515;-87
2024/01/06 00:21:05;;;;;;;6.28;4.93;;;6.70;99.90;;;;;;5069157;28;20178;-87
2024/01/06 00:23:30;;;;;;;7.37;4.43;;;6.80;99.90;;;;;;5058392;28;20280;-87
2024/01/06 00:25:56;;;;;;;7.23;5.47;;;7.00;99.90;;;;;;5051079;28;20280;-88
2024/01/06 00:28:22;;;;;;;7.13;4.60;;;7.50;99.90;;;;;;5051581;28;20178;-87
2024/01/06 00:30:47;;;;;;;5.30;4.33;;;7.10;99.90;;;;;;5052522;28;20212;-86
2024/01/06 00:33:13;;;;;;;5.73;4.70;;;6.80;99.90;;;;;;5050763;28;20186;-87
2024/01/06 00:35:39;;;;;;;6.20;4.97;;;6.90;99.90;;;;;;5067184;28;20221;-89
2024/01/06 00:38:04;;;;;;;5.43;4.87;;;7.10;99.90;;;;;;5055197;28;20199;-87
2024/01/06 00:40:32;;;;;;;5.70;4.57;;;6.60;99.90;;;;;;5066514;28;20194;-87
2024/01/06 00:42:57;;;;;;;5.95;4.30;;;7.00;99.90;;;;;;5050429;28;20205;-87
2024/01/06 00:45:23;;;;;;;9.60;4.13;;;6.90;99.90;;;;;;5051706;28;20681;-88
2024/01/06 00:47:48;;;;;;;6.20;4.30;;;6.80;99.90;;;;;;5050551;28;20182;-87
2024/01/06 00:50:14;;;;;;;10.80;4.27;;;7.30;99.90;;;;;;5050116;28;20268;-87
2024/01/06 00:52:39;;;;;;;6.43;3.93;;;7.00;99.90;;;;;;5058271;28;20684;-86
2024/01/06 00:55:05;;;;;;;5.10;3.63;;;7.40;99.90;;;;;;5050817;28;20201;-87
2024/01/06 00:57:30;;;;;;;4.70;3.27;;;6.90;99.90;;;;;;5053010;28;20205;-87
2024/01/06 00:59:56;;;;;;;8.80;6.40;;;7.40;99.90;;;;;;5068427;28;20218;-87
2024/01/06 01:02:21;;;;;;;3.70;3.23;;;7.20;99.90;;;;;;5054824;28;20185;-87
2024/01/06 01:04:47;;;;;;;7.10;4.10;;;7.10;99.90;;;;;;5070696;28;20224;-88
2024/01/06 01:07:13;;;;;;;4.30;3.90;;;7.50;99.90;;;;;;5074903;28;20699;-86
2024/01/06 01:09:38;;;;;;;4.30;3.40;;;7.00;99.90;;;;;;5058252;28;20231;-87
2024/01/06 01:12:07;;;;;;;5.07;3.50;;;7.20;99.90;;;;;;5067377;28;20186;-87
2024/01/06 01:14:32;;;;;;;4.00;3.50;;;7.10;99.90;;;;;;5054725;28;20209;-86
2024/01/06 01:16:57;;;;;;;5.03;3.97;;;7.00;99.90;;;;;;5069147;28;20192;-88
2024/01/06 01:19:23;;;;;;;5.37;3.27;;;7.20;99.90;;;;;;5070253;28;20182;-86
2024/01/06 01:21:48;;;;;;;3.83;3.00;;;7.20;99.90;;;;;;5064021;28;20187;-88
2024/01/06 01:24:14;;;;;;;6.20;4.13;;;7.20;99.90;;;;;;5049767;28;20221;-87
2024/01/06 01:26:40;;;;;;;3.63;2.70;;;7.00;99.90;;;;;;5067123;28;20189;-86
2024/01/06 01:29:05;;;;;;;4.50;3.40;;;7.10;99.90;;;;;;5066381;28;20677;-86
2024/01/06 01:31:31;;;;;;;4.07;2.53;;;7.00;99.90;;;;;;5065942;28;20182;-87
2024/01/06 01:33:56;;;;;;;3.10;2.60;;;7.30;99.90;;;;;;5066423;28;20476;-88
2024/01/06 01:36:21;;;;;;;4.70;3.07;;;6.80;99.90;;;;;;5051701;28;20209;-87
2024/01/06 01:38:47;;;;;;;4.53;3.00;;;6.90;99.90;;;;;;5069992;28;20232;-88
2024/01/06 01:41:12;;;;;;;3.63;2.57;;;6.70;99.90;;;;;;5054135;28;20304;-87
2024/01/06 01:43:38;;;;;;;2.93;2.30;;;6.60;99.90;;;;;;5066915;28;20670;-87
2024/01/06 01:46:04;;;;;;;3.40;2.10;;;6.80;99.90;;;;;;5055943;28;20204;-87
2024/01/06 01:48:30;;;;;;;3.20;2.90;;;6.70;99.90;;;;;;5074505;28;20697;-86
2024/01/06 01:50:56;;;;;;;4.63;2.28;;;7.20;99.90;;;;;;5071131;28;20428;-87
2024/01/06 01:53:24;;;;;;;2.73;2.30;;;6.80;99.90;;;;;;5069644;28;20224;-87
2024/01/06 01:55:51;;;;;;;3.92;2.40;;;6.80;99.90;;;;;;5074838;28;20767;-87
2024/01/06 01:58:16;;;;;;;3.50;2.70;;;6.80;99.90;;;;;;5056686;28;20196;-87
2024/01/06 02:00:42;;;;;;;3.23;2.10;;;6.80;99.90;;;;;;5059183;28;20181;-90
2024/01/06 02:03:11;;;;;;;5.67;2.40;;;6.80;99.90;;;;;;5053207;28;20205;-88
2024/01/06 02:05:36;;;;;;;3.47;2.72;;;6.20;99.90;;;;;;5069279;28;20452;-88
2024/01/06 02:08:02;;;;;;;11.50;5.30;;;6.70;99.90;;;;;;5067924;28;20307;-88
2024/01/06 02:10:30;;;;;;;5.07;2.20;;;6.60;99.90;;;;;;5069915;28;20189;-87
2024/01/06 02:12:56;;;;;;;2.70;2.03;;;6.60;99.90;;;;;;5061498;28;20208;-88
2024/01/06 02:15:21;;;;;;;3.87;2.13;;;6.70;99.90;;;;;;5069888;28;20686;-87
2024/01/06 02:17:47;;;;;;;3.70;1.90;;;6.90;99.90;;;;;;5061788;28;20184;-87
2024/01/06 02:20:14;;;;;;;5.03;2.47;;;6.90;99.90;;;;;;5072935;28;20193;-87
2024/01/06 02:22:39;;;;;;;3.58;1.90;;;6.90;99.90;;;;;;5072320;28;20610;-87
2024/01/06 02:25:12;;;;;;;2.07;1.97;;;7.00;99.90;;;;;;5072558;28;20190;-88
2024/01/06 02:27:38;;;;;;;2.00;1.70;;;7.00;99.90;;;;;;5069073;28;20235;-87
2024/01/06 02:30:05;;;;;;;4.10;2.58;;;6.80;99.90;;;;;;5069569;28;20178;-87
2024/01/06 02:32:31;;;;;;;2.35;2.15;;;6.70;99.90;;;;;;5068793;28;20178;-87
2024/01/06 02:34:56;;;;;;;1.80;1.70;;;7.00;99.90;;;;;;5068135;28;20216;-87
2024/01/06 02:37:22;;;;;;;4.30;1.93;;;6.40;99.90;;;;;;5055321;28;20177;-88
2024/01/06 02:39:47;;;;;;;3.20;2.27;;;6.50;99.90;;;;;;5054190;28;20760;-88
2024/01/06 02:42:13;;;;;;;3.17;2.13;;;6.80;99.90;;;;;;5068141;28;20182;-87
2024/01/06 02:44:38;;;;;;;2.60;2.40;;;6.80;99.90;;;;;;5067925;28;20213;-87
2024/01/06 02:47:04;;;;;;;6.17;2.73;;;6.70;99.90;;;;;;5051826;28;20177;-87
2024/01/06 02:49:30;;;;;;;2.50;1.88;;;6.80;99.90;;;;;;5068505;28;20268;-87
2024/01/06 02:51:55;;;;;;;2.13;1.90;;;6.90;99.90;;;;;;5066875;28;20270;-88
2024/01/06 02:54:21;;;;;;;4.53;2.30;;;6.80;99.90;;;;;;5052508;28;20673;-87
2024/01/06 02:56:48;;;;;;;3.20;2.10;;;6.90;99.90;;;;;;5067522;28;20189;-87
2024/01/06 02:59:13;;;;;;;4.03;2.50;;;6.70;99.90;;;;;;5051136;28;20201;-88
2024/01/06 03:01:39;;;;;;;2.37;2.00;;;6.50;99.90;;;;;;5067687;28;20181;-88
2024/01/06 03:04:04;;;;;;;2.07;1.87;;;6.20;99.90;;;;;;5067301;28;20213;-88
2024/01/06 03:06:30;;;;;;;2.57;1.83;;;6.70;99.90;;;;;;5057283;28;20663;-87
2024/01/06 03:08:55;;;;;;;3.70;2.40;;;6.60;99.90;;;;;;5090032;28;20181;-87
2024/01/06 03:11:21;;;;;;;2.93;1.97;;;6.50;99.90;;;;;;5071027;28;20192;-88
2024/01/06 03:13:46;;;;;;;4.73;2.10;;;6.50;99.90;;;;;;5064974;28;20400;-87
2024/01/06 03:16:12;;;;;;;3.23;2.40;;;6.30;99.90;;;;;;5055619;28;20189;-87
2024/01/06 03:18:38;;;;;;;3.83;2.15;;;6.90;99.90;;;;;;5071398;28;20189;-86
2024/01/06 03:21:03;;;;;;;3.90;1.80;;;6.20;99.90;;;;;;5047573;28;20247;-89
2024/01/06 03:23:29;;;;;;;4.77;2.17;;;6.30;99.90;;;;;;5054148;28;20254;-88
2024/01/06 03:25:54;;;;;;;3.60;2.03;;;6.30;99.90;;;;;;5067938;28;20270;-88
2024/01/06 03:28:20;;;;;;;3.93;1.77;;;6.30;99.90;;;;;;5070462;28;20185;-88
2024/01/06 03:30:45;;;;;;;5.13;1.90;;;6.30;99.90;;;;;;5056515;28;20185;-88
2024/01/06 03:33:12;;;;;;;3.23;1.67;;;5.90;99.90;;;;;;5069588;28;20185;-86
2024/01/06 03:35:37;;;;;;;4.97;2.90;;;6.20;99.90;;;;;;5068205;28;20201;-86
2024/01/06 03:38:03;;;;;;;6.30;2.20;;;6.20;99.90;;;;;;5024038;23;1088047;-88
2024/01/06 03:40:28;;;;;;;1.80;1.53;;;6.30;99.90;;;;;;5044630;28;20204;-88
2024/01/06 03:42:54;;;;;;;3.13;1.93;;;6.30;99.90;;;;;;5051402;28;20209;-88
2024/01/06 03:45:19;;;;;;;3.50;2.50;;;6.70;99.90;;;;;;5061785;28;20227;-88
2024/01/06 03:47:45;;;;;;;5.63;2.10;;;6.70;99.90;;;;;;5035654;28;20644;-88
2024/01/06 03:50:12;;;;;;;2.90;1.80;;;6.50;99.90;;;;;;5033224;28;20235;-88
2024/01/06 03:52:38;;;;;;;4.13;2.15;;;6.20;99.90;;;;;;5029428;28;20244;-88
2024/01/06 03:55:05;;;;;;;3.33;2.00;;;6.10;99.90;;;;;;5040045;28;20222;-87
2024/01/06 03:57:30;;;;;;;5.05;2.22;;;6.30;99.90;;;;;;5033264;28;20189;-88
2024/01/06 03:59:57;;;;;;;3.40;2.10;;;6.50;99.90;;;;;;5030228;28;20247;-88
2024/01/06 04:02:22;;;;;;;5.25;3.47;;;6.50;99.90;;;;;;5032722;28;20235;-88
2024/01/06 04:04:48;;;;;;;5.20;2.70;;;6.50;99.90;;;;;;5033315;28;20617;-88
2024/01/06 04:07:13;;;;;;;4.60;3.80;;;6.60;99.90;;;;;;5032272;28;20194;-89
2024/01/06 04:09:42;;;;;;;2.53;2.20;;;6.50;99.90;;;;;;5045451;28;20219;-89
2024/01/06 04:12:07;;;;;;;4.30;2.05;;;6.70;99.90;;;;;;5037572;28;20192;-89
2024/01/06 04:14:33;;;;;;;2.67;2.13;;;6.30;99.90;;;;;;5032635;28;20209;-89
2024/01/06 04:16:58;;;;;;;3.53;2.33;;;6.50;99.90;;;;;;5027435;28;20185;-89
2024/01/06 04:19:24;;;;;;;3.63;2.07;;;6.70;99.90;;;;;;5033516;28;20232;-89
2024/01/06 04:21:49;;;;;;;6.30;2.13;;;6.10;99.90;;;;;;5034279;28;20194;-87
2024/01/06 04:24:15;;;;;;;2.50;2.00;;;6.20;99.90;;;;;;5026020;28;20596;-89
2024/01/06 04:26:40;;;;;;;2.10;1.60;;;6.50;99.90;;;;;;5043467;28;20172;-87
2024/01/06 04:29:08;;;;;;;4.97;1.60;;;6.50;99.90;;;;;;5056906;28;20196;-89
2024/01/06 04:31:33;;;;;;;2.53;1.90;;;6.70;99.90;;;;;;5033349;28;20181;-90
2024/01/06 04:33:59;;;;;;;4.57;1.87;;;6.90;99.90;;;;;;5033399;28;20624;-89
2024/01/06 04:36:24;;;;;;;2.53;1.90;;;6.40;99.90;;;;;;5033560;28;20216;-90
2024/01/06 04:38:50;;;;;;;3.00;1.77;;;6.40;99.90;;;;;;5032166;28;20197;-89
2024/01/06 04:41:15;;;;;;;2.73;1.97;;;6.50;99.90;;;;;;5031392;28;20186;-89
2024/01/06 04:43:41;;;;;;;3.97;1.80;;;6.30;99.90;;;;;;5037498;28;20208;-89
2024/01/06 04:46:06;;;;;;;2.33;2.00;;;6.30;99.90;;;;;;5038700;28;20185;-89
2024/01/06 04:48:32;;;;;;;2.87;2.17;;;6.30;99.90;;;;;;5031720;28;20192;-90
2024/01/06 04:50:57;;;;;;;3.07;1.97;;;6.70;99.90;;;;;;5035197;28;20215;-89
2024/01/06 04:53:23;;;;;;;3.23;1.87;;;6.30;99.90;;;;;;5036904;28;20181;-90
2024/01/06 04:55:48;;;;;;;3.40;1.70;;;6.20;99.90;;;;;;5037816;28;20247;-89
2024/01/06 04:58:14;;;;;;;2.23;1.90;;;6.30;99.90;;;;;;5030359;28;20227;-89
2024/01/06 05:00:39;;;;;;;4.27;2.40;;;6.70;99.90;;;;;;5032277;28;20194;-89
2024/01/06 05:03:05;;;;;;;3.27;2.30;;;6.60;99.90;;;;;;5032868;28;20266;-89
2024/01/06 05:05:30;;;;;;;2.53;1.60;;;6.40;99.90;;;;;;5033314;28;20208;-89
2024/01/06 05:07:56;;;;;;;2.90;1.83;;;6.60;99.90;;;;;;5029918;28;20184;-89
2024/01/06 05:10:22;;;;;;;3.07;1.60;;;6.80;99.90;;;;;;5032890;28;20716;-89
2024/01/06 05:12:47;;;;;;;5.00;1.92;;;6.20;99.90;;;;;;5032237;28;20193;-89
2024/01/06 05:15:13;;;;;;;4.20;2.13;;;6.70;99.90;;;;;;5049165;28;20193;-89
2024/01/06 05:17:39;;;;;;;4.60;2.13;;;6.20;99.90;;;;;;5054728;28;20197;-89
2024/01/06 05:20:05;;;;;;;3.00;1.90;;;6.10;99.90;;;;;;5032392;28;20193;-89
2024/01/06 05:22:30;;;;;;;5.10;2.30;;;6.00;99.90;;;;;;5033951;28;20189;-89
2024/01/06 05:24:56;;;;;;;3.10;1.77;;;6.00;99.90;;;;;;5037882;28;20263;-89
2024/01/06 05:27:21;;;;;;;2.90;1.80;;;5.90;99.90;;;;;;5037701;28;20193;-89
2024/01/06 05:29:48;;;;;;;3.80;1.93;;;6.60;99.90;;;;;;5036955;28;20195;-89
2024/01/06 05:32:15;;;;;;;3.25;1.90;;;6.30;99.90;;;;;;5037387;28;20181;-89
2024/01/06 05:34:41;;;;;;;4.03;2.47;;;6.10;99.90;;;;;;5040985;28;20204;-89
2024/01/06 05:37:06;;;;;;;2.10;1.90;;;6.40;99.90;;;;;;5038355;28;20182;-89
2024/01/06 05:39:32;;;;;;;2.50;1.97;;;6.30;99.90;;;;;;5033188;28;20197;-89
2024/01/06 05:41:57;;;;;;;4.23;1.90;;;6.10;99.90;;;;;;5040792;28;20181;-89
2024/01/06 05:44:23;;;;;;;4.70;2.03;;;6.00;99.90;;;;;;5041561;28;20220;-89
2024/01/06 05:46:49;;;;;;;1.70;1.60;;;6.20;99.90;;;;;;5043493;28;20529;-89
2024/01/06 05:49:14;;;;;;;2.80;1.90;;;6.30;99.90;;;;;;5044628;28;20260;-89
2024/01/06 05:51:45;;;;;;;1.83;1.63;;;6.10;99.90;;;;;;5034152;28;20546;-89
2024/01/06 05:54:10;;;;;;;2.50;1.75;;;6.40;99.90;;;;;;5040304;28;20712;-89
2024/01/06 05:56:36;;;;;;;2.73;2.00;;;6.20;99.90;;;;;;5039492;28;20204;-88
2024/01/06 05:59:02;;;;;;;1.97;1.57;;;5.90;99.90;;;;;;5036062;28;20189;-89
2024/01/06 06:01:28;;;;;;;4.25;1.92;;;6.70;99.90;;;;;;5036947;28;20267;-89
2024/01/06 06:03:53;;;;;;;4.80;2.20;;;6.20;99.90;;;;;;5036661;28;20312;-89
2024/01/06 06:06:19;;;;;;;2.30;2.10;;;6.20;99.90;;;;;;5037036;28;20174;-89
2024/01/06 06:08:46;;;;;;;6.93;2.70;;;6.70;99.90;;;;;;5036085;28;20734;-90
2024/01/06 06:11:11;;;;;;;4.13;2.35;;;6.20;99.90;;;;;;5060799;28;20173;-89
2024/01/06 06:13:39;;;;;;;4.13;3.60;;;6.30;99.90;;;;;;5058498;28;20425;-90
2024/01/06 06:16:05;;;;;;;2.92;2.55;;;6.40;99.90;;;;;;5047662;28;20197;-90
2024/01/06 06:18:30;;;;;;;2.80;2.20;;;6.40;99.90;;;;;;5060065;28;20189;-88
2024/01/06 06:20:56;;;;;;;4.07;2.47;;;6.80;99.90;;;;;;5054189;28;20200;-89
2024/01/06 06:23:21;;;;;;;4.17;1.90;;;6.10;99.90;;;;;;5034687;28;20209;-89
2024/01/06 06:25:47;;;;;;;2.47;2.27;;;6.70;99.90;;;;;;5036069;28;20206;-89
2024/01/06 06:28:14;;;;;;;3.07;2.00;;;6.60;99.90;;;;;;5034684;28;20263;-89
2024/01/06 06:30:39;;;;;;;3.03;2.20;;;6.50;99.90;;;;;;5034811;28;20317;-89
2024/01/06 06:33:05;;;;;;;6.00;2.40;;;6.90;99.90;;;;;;5034641;28;20296;-89
2024/01/06 06:35:30;;;;;;;2.80;2.17;;;6.70;99.90;;;;;;5035028;28;20567;-89
2024/01/06 06:37:56;;;;;;;2.57;1.70;;;6.60;99.90;;;;;;5051905;28;20284;-89
2024/01/06 06:40:21;;;;;;;2.10;1.90;;;6.80;99.90;;;;;;5043559;28;20174;-89
2024/01/06 06:42:47;;;;;;;2.10;1.90;;;6.60;99.90;;;;;;5058031;28;20331;-89
2024/01/06 06:45:13;;;;;;;5.25;2.42;;;6.70;99.90;;;;;;5057683;28;20224;-89
2024/01/06 06:47:38;;;;;;;2.73;2.03;;;6.80;99.90;;;;;;5051722;28;20197;-89
2024/01/06 06:50:05;;;;;;;2.63;2.00;;;6.50;99.90;;;;;;5035036;28;20631;-87
2024/01/06 06:52:30;;;;;;;3.53;2.17;;;6.50;99.90;;;;;;5036247;28;20193;-89
2024/01/06 06:54:56;;;;;;;3.23;2.33;;;6.40;99.90;;;;;;5043217;28;20210;-89
2024/01/06 06:57:22;;;;;;;5.03;2.23;;;6.60;99.90;;;;;;5036843;28;20190;-89
2024/01/06 06:59:47;;;;;;;2.40;2.00;;;6.50;99.90;;;;;;5034047;28;20216;-88
2024/01/06 07:02:13;;;;;;;4.37;2.00;;;6.60;99.90;;;;;;5036031;28;20196;-88
2024/01/06 07:04:38;;;;;;;2.37;1.60;;;6.70;99.90;;;;;;5037425;28;20214;-89
2024/01/06 07:07:04;;;;;;;3.50;2.33;;;6.50;99.90;;;;;;5035801;28;20182;-89
2024/01/06 07:09:30;;;;;;;2.97;1.70;;;6.70;99.90;;;;;;5039647;28;20178;-89
2024/01/06 07:11:55;;;;;;;2.70;2.00;;;6.60;99.90;;;;;;5034514;28;20184;-89
2024/01/06 07:14:21;;;;;;;6.17;1.67;;;6.40;99.90;;;;;;5036600;28;20670;-89
2024/01/06 07:16:46;;;;;;;4.13;1.73;;;6.90;99.90;;;;;;5054050;28;20180;-89
2024/01/06 07:19:12;;;;;;;4.47;1.80;;;6.50;99.90;;;;;;5061498;28;20196;-89
2024/01/06 07:21:37;;;;;;;2.17;1.97;;;6.60;99.90;;;;;;5036703;28;20193;-89
2024/01/06 07:24:03;;;;;;;4.33;1.80;;;6.60;99.90;;;;;;5053527;28;20209;-89
2024/01/06 07:26:28;;;;;;;4.57;1.80;;;6.40;99.90;;;;;;5037560;28;20185;-89
2024/01/06 07:28:55;;;;;;;3.30;1.80;;;6.60;99.90;;;;;;5035524;28;20209;-89
2024/01/06 07:31:20;;;;;;;4.20;2.67;;;6.50;99.90;;;;;;5037904;28;20189;-89
2024/01/06 07:33:46;;;;;;;2.33;2.13;;;6.60;99.90;;;;;;5035540;28;20186;-89
2024/01/06 07:36:11;;;;;;;2.40;2.00;;;6.60;99.90;;;;;;5036183;28;20188;-89
2024/01/06 07:38:37;;;;;;;5.23;2.20;;;6.80;99.90;;;;;;5035704;28;20205;-89
2024/01/06 07:41:04;;;;;;;2.63;2.22;;;6.40;99.90;;;;;;5054819;28;20709;-89
2024/01/06 07:43:30;;;;;;;3.40;2.22;;;7.00;99.90;;;;;;5037623;28;20304;-89
2024/01/06 07:45:56;;;;;;;2.72;1.60;;;6.50;99.90;;;;;;5035441;28;20194;-89
2024/01/06 07:48:21;;;;;;;3.27;2.60;;;6.60;99.90;;;;;;5035765;28;20175;-89
2024/01/06 07:50:47;;;;;;;2.20;1.80;;;6.60;99.90;;;;;;5058933;28;20181;-89
2024/01/06 07:53:13;;;;;;;3.70;1.70;;;6.70;99.90;;;;;;5061010;28;20185;-88
2024/01/06 07:55:40;;;;;;;2.75;2.00;;;6.90;99.90;;;;;;5034576;28;20206;-89
2024/01/06 07:58:05;;;;;;;3.10;2.17;;;6.40;99.90;;;;;;5035968;28;20185;-89
2024/01/06 08:00:31;;;;;;;2.57;1.80;;;6.40;99.90;;;;;;5034357;28;20182;-89
2024/01/06 08:02:56;;;;;;;2.20;1.73;;;6.60;99.90;;;;;;5036921;28;20477;-89
2024/01/06 08:05:22;;;;;;;4.27;2.23;;;6.70;99.90;;;;;;5036616;28;20190;-88
2024/01/06 08:07:47;;;;;;;1.80;1.70;;;7.00;99.90;;;;;;5034865;28;20259;-88
2024/01/06 08:10:13;;;;;;;1.90;1.80;;;7.10;99.90;;;;;;5034675;28;20277;-88
2024/01/06 08:12:39;;;;;;;3.40;1.90;;;7.10;99.90;;;;;;5031839;28;20704;-88
2024/01/06 08:15:05;;;;;;;2.10;1.30;;;6.60;99.90;;;;;;5034915;28;20269;-88
2024/01/06 08:17:30;;;;;;;1.70;1.50;;;6.70;99.90;;;;;;5042700;28;20170;-88
2024/01/06 08:19:56;;;;;;;3.70;1.80;;;7.10;99.90;;;;;;5057791;28;20177;-89
2024/01/06 08:22:22;;;;;;;5.37;2.10;;;6.90;99.90;;;;;;5058482;28;20169;-89
2024/01/06 08:24:47;;;;;;;2.30;1.70;;;6.90;99.90;;;;;;5036995;28;20418;-88
2024/01/06 08:27:13;;;;;;;4.50;2.13;;;7.40;99.90;;;;;;5041847;28;20235;-88
2024/01/06 08:29:39;;;;;;;4.27;1.77;;;7.00;99.90;;;;;;5017593;28;20189;-89
2024/01/06 08:32:05;;;;;;;2.10;1.87;;;7.30;99.90;;;;;;5035478;28;20701;-87
2024/01/06 08:34:30;;;;;;;5.40;3.27;;;7.20;99.90;;;;;;5036259;28;20441;-89
2024/01/06 08:36:56;;;;;;;2.40;1.77;;;7.00;99.90;;;;;;5035861;28;20505;-89
2024/01/06 08:39:22;;;;;;;2.37;2.07;;;8.50;99.90;;;;;;5038333;28;20193;-90
2024/01/06 08:41:47;;;;;;;2.35;2.10;;;7.30;99.90;;;;;;5054550;28;20165;-89
2024/01/06 08:44:13;;;;;;;2.83;2.07;;;7.30;99.90;;;;;;5052426;28;20217;-89
2024/01/06 08:46:39;;;;;;;2.67;2.03;;;7.60;99.90;;;;;;5057783;28;20181;-89
2024/01/06 08:49:05;;;;;;;1.73;1.60;;;7.80;99.90;;;;;;5060014;28;20170;-89
2024/01/06 08:51:30;;;;;;;2.20;2.00;;;7.40;99.90;;;;;;5060668;28;20192;-89
2024/01/06 08:53:56;;;;;;;3.90;2.20;;;7.50;99.90;;;;;;5070715;28;20214;-90
2024/01/06 08:56:22;;;;;;;2.10;1.70;;;7.90;99.90;;;;;;5065652;28;20208;-89
2024/01/06 08:58:47;;;;;;;2.33;1.93;;;7.70;99.90;;;;;;5058958;28;20460;-89
2024/01/06 09:01:15;;;;;;;1.80;1.60;;;8.20;99.90;;;;;;5055448;28;20197;-89
2024/01/06 09:03:41;;;;;;;2.30;1.70;;;8.00;99.90;;;;;;5051571;28;20217;-89
2024/01/06 09:06:07;;;;;;;4.20;2.00;;;7.80;99.90;;;;;;5046551;28;20704;-88
2024/01/06 09:08:32;;;;;;;2.40;1.80;;;7.90;99.90;;;;;;5049835;28;20181;-89
2024/01/06 09:10:58;;;;;;;2.37;1.70;;;7.80;99.90;;;;;;5050339;28;20416;-88
2024/01/06 09:13:24;;;;;;;2.20;2.00;;;8.30;99.90;;;;;;5049327;28;20268;-90
2024/01/06 09:15:51;;;;;;;2.22;1.52;;;7.90;99.90;;;;;;5034605;28;20538;-90
2024/01/06 09:18:16;;;;;;;1.45;1.33;;;8.40;99.90;;;;;;5054947;28;20177;-90
2024/01/06 09:20:42;;;;;;;2.00;1.70;;;8.20;99.90;;;;;;5036416;28;20668;-89
2024/01/06 09:23:07;;;;;;;2.10;1.90;;;8.50;99.90;;;;;;5066353;28;20205;-90
2024/01/06 09:25:33;;;;;;;2.27;2.00;;;8.60;99.90;;;;;;5040105;28;20686;-90
2024/01/06 09:27:59;;;;;;;2.57;1.93;;;8.50;99.90;;;;;;5036684;28;20178;-90
2024/01/06 09:30:25;;;;;;;2.28;1.45;;;8.20;99.90;;;;;;5032522;28;20212;-88
2024/01/06 09:32:51;;;;;;;1.40;1.30;;;8.10;99.90;;;;;;5037575;28;20193;-90
2024/01/06 09:35:16;;;;;;;2.20;1.50;;;8.40;99.90;;;;;;5037083;28;20201;-90
2024/01/06 09:37:42;;;;;;;2.30;1.70;;;8.40;99.90;;;;;;5039930;28;20185;-90
2024/01/06 09:40:13;;;;;;;2.23;2.03;;;8.90;99.90;;;;;;5032173;28;20202;-90
2024/01/06 09:42:39;;;;;;;2.70;2.05;;;8.50;99.90;;;;;;5033646;28;20229;-90
2024/01/06 09:45:05;;;;;;;2.17;1.97;;;8.90;99.90;;;;;;5028294;28;20206;-90
2024/01/06 09:47:34;;;;;;;2.05;1.90;;;8.70;99.90;;;;;;5021443;28;20438;-90
2024/01/06 09:50:03;;;;;;;2.08;1.88;;;8.70;99.90;;;;;;5039944;28;20264;-90
2024/01/06 09:52:32;;;;;;;1.77;1.67;;;9.00;99.90;;;;;;5049791;28;20188;-90
2024/01/06 09:54:59;;;;;;;2.20;1.80;;;9.10;99.90;;;;;;5065877;28;20215;-90
2024/01/06 09:57:26;;;;;;;1.70;1.20;;;8.60;99.90;;;;;;5033239;28;20278;-90
2024/01/06 09:59:52;;;;;;;2.45;1.20;;;9.00;99.90;;;;;;5048669;28;20182;-90
2024/01/06 10:02:18;;;;;;;3.45;1.10;;;8.90;99.90;;;;;;5036332;28;20182;-90
2024/01/06 10:04:44;;;;;;;2.40;1.40;;;8.70;99.90;;;;;;5028169;28;20319;-90
2024/01/06 10:07:13;;;;;;;2.78;1.65;;;8.60;99.90;;;;;;5039819;28;20412;-89
2024/01/06 10:09:41;;;;;;;2.72;1.70;;;8.80;99.90;;;;;;5038879;28;20209;-89
2024/01/06 10:12:07;;;;;;;2.45;2.28;;;9.10;99.90;;;;;;5038430;28;20182;-89
2024/01/06 10:14:33;;;;;;;1.83;1.67;;;8.80;99.90;;;;;;5035967;28;20678;-89
2024/01/06 10:16:58;;;;;;;1.77;1.67;;;8.60;99.90;;;;;;5037381;28;20202;-89
2024/01/06 10:19:24;;;;;;;1.70;1.60;;;9.20;99.90;;;;;;5038616;28;20190;-89
2024/01/06 10:21:49;;;;;;;1.80;1.50;;;9.30;99.90;;;;;;5037209;28;20211;-89
2024/01/06 10:24:18;;;;;;;2.10;2.00;;;9.00;99.90;;;;;;5036381;28;20218;-89
2024/01/06 10:26:45;;;;;;;1.55;1.45;;;8.80;99.90;;;;;;5039196;28;20200;-89
2024/01/06 10:29:12;;;;;;;1.45;1.33;;;8.90;99.90;;;;;;5021367;28;20301;-89
2024/01/06 10:31:38;;;;;;;1.45;1.30;;;8.70;99.90;;;;;;5040935;28;20204;-89
2024/01/06 10:34:05;;;;;;;1.47;1.37;;;8.60;99.90;;;;;;5039578;28;20210;-89
2024/01/06 10:36:31;;;;;;;2.97;1.60;;;9.10;99.90;;;;;;5020914;28;20198;-89
2024/01/06 10:38:57;;;;;;;1.90;1.70;;;8.90;99.90;;;;;;5058886;28;20228;-90
2024/01/06 10:41:25;;;;;;;1.45;1.35;;;9.40;99.90;;;;;;5059872;28;20170;-89
2024/01/06 10:43:51;;;;;;;1.23;1.13;;;8.90;99.90;;;;;;5062510;28;20189;-89
2024/01/06 10:46:19;;;;;;;1.83;1.27;;;9.20;99.90;;;;;;5058789;28;20254;-89
2024/01/06 10:48:45;;;;;;;1.60;1.23;;;8.80;99.90;;;;;;5059126;28;20187;-89
2024/01/06 10:51:13;;;;;;;1.98;1.42;;;8.70;99.90;;;;;;5075911;28;20191;-89
2024/01/06 10:53:40;;;;;;;1.48;1.38;;;8.40;99.90;;;;;;5058045;28;20178;-89
2024/01/06 10:56:07;;;;;;;1.60;1.50;;;8.40;99.90;;;;;;5057368;28;20231;-89
2024/01/06 10:58:37;;;;;;;2.03;1.45;;;8.40;99.90;;;;;;5058078;28;20190;-89
2024/01/06 11:01:03;;;;;;;3.45;1.40;;;8.40;99.90;;;;;;5059804;28;20181;-89
2024/01/06 11:03:29;;;;;;;1.35;1.25;;;8.40;99.90;;;;;;5056818;28;20225;-89
2024/01/06 11:05:55;;;;;;;1.50;1.40;;;8.40;99.90;;;;;;5056133;28;20237;-89
2024/01/06 11:08:22;;;;;;;1.40;1.30;;;8.40;99.90;;;;;;5050897;28;20421;-88
2024/01/06 11:10:48;;;;;;;1.35;1.25;;;8.60;99.90;;;;;;5056584;28;20442;-90
2024/01/06 11:13:20;;;;;;;2.03;1.40;;;8.80;99.90;;;;;;5060153;28;20170;-90
2024/01/06 11:15:48;;;;;;;2.13;1.50;;;8.30;99.90;;;;;;5066737;28;20305;-88
2024/01/06 11:18:33;;;;;;;1.35;1.25;;;8.60;99.90;;;;;;5063968;28;20166;-89
2024/01/06 11:21:14;;;;;;;1.50;1.40;;;8.50;99.90;;;;;;5058773;28;20193;-90
2024/01/06 11:23:40;;;;;;;2.08;1.50;;;8.40;99.90;;;;;;5056899;28;20201;-90
2024/01/06 11:26:09;;;;;;;3.33;1.90;;;8.40;99.90;;;;;;5061270;28;20205;-90
2024/01/06 11:28:47;;;;;;;1.60;1.50;;;8.60;99.90;;;;;;5060480;28;20181;-90
2024/01/06 11:31:13;;;;;;;1.70;1.33;;;9.00;99.90;;;;;;5090002;28;20185;-90
2024/01/06 11:33:49;;;;;;;3.40;1.52;;;8.60;99.90;;;;;;5059686;28;20249;-89
2024/01/06 11:36:15;;;;;;;1.50;1.40;;;8.60;99.90;;;;;;5059432;28;20188;-88
2024/01/06 11:38:41;;;;;;;2.25;2.05;;;9.20;99.90;;;;;;5066127;28;20193;-90
2024/01/06 11:41:07;;;;;;;2.30;2.03;;;8.90;99.90;;;;;;5063256;28;20174;-89
2024/01/06 11:43:35;;;;;;;3.10;1.63;;;9.00;99.90;;;;;;5060473;28;20217;-89
2024/01/06 11:46:02;;;;;;;2.22;1.83;;;9.40;99.90;;;;;;5063584;28;20193;-89
2024/01/06 11:48:31;;;;;;;2.22;2.03;;;9.10;99.90;;;;;;5042932;28;20193;-90
2024/01/06 11:50:58;;;;;;;2.60;1.98;;;8.80;99.90;;;;;;5059514;28;20170;-90
2024/01/06 11:53:28;;;;;;;1.90;1.80;;;9.00;99.90;;;;;;5061926;28;20177;-89
2024/01/06 11:55:53;;;;;;;2.10;1.83;;;9.10;99.90;;;;;;5055748;28;20344;-90
2024/01/06 11:58:19;;;;;;;1.90;1.80;;;9.10;99.90;;;;;;5063906;28;20184;-90
2024/01/06 12:00:55;;;;;;;2.57;2.37;;;9.60;99.90;;;;;;5059808;28;20177;-90
2024/01/06 12:03:20;;;;;;;1.92;1.83;;;9.00;99.90;;;;;;5058226;28;20236;-90
2024/01/06 12:05:58;;;;;;;2.13;2.03;;;9.20;99.90;;;;;;5059853;28;20953;-90
2024/01/06 12:08:24;;;;;;;2.20;2.00;;;9.10;99.90;;;;;;5024447;28;20177;-90
2024/01/06 12:10:49;;;;;;;2.07;1.97;;;9.60;99.90;;;;;;5046088;28;20188;-90
2024/01/06 12:13:17;;;;;;;3.00;2.30;;;9.00;99.90;;;;;;5059712;28;20174;-90
2024/01/06 12:15:42;;;;;;;1.90;1.80;;;9.00;99.90;;;;;;5061371;28;20198;-88
2024/01/06 12:18:08;;;;;;;2.10;2.00;;;9.40;99.90;;;;;;5058784;28;20186;-90
2024/01/06 12:20:34;;;;;;;1.90;1.80;;;8.10;99.90;;;;;;5057745;28;20185;-87
2024/01/06 12:23:00;;;;;;;1.87;1.77;;;8.40;99.90;;;;;;5058919;28;20210;-90
2024/01/06 12:25:28;;;;;;;1.65;1.55;;;8.50;99.90;;;;;;5072992;28;20190;-90
2024/01/06 12:27:54;;;;;;;2.15;1.95;;;8.50;99.90;;;;;;5047371;28;20181;-90
2024/01/06 12:30:21;;;;;;;1.50;1.40;;;8.50;99.90;;;;;;5033652;28;20239;-90
2024/01/06 12:32:54;;;;;;;2.53;2.13;;;8.90;99.90;;;;;;5034971;28;20183;-90
2024/01/06 12:35:21;;;;;;;1.90;1.80;;;8.60;99.90;;;;;;5026216;28;20248;-89
2024/01/06 12:37:46;;;;;;;2.30;1.98;;;7.90;99.90;;;;;;5015569;28;20212;-90
2024/01/06 12:40:13;;;;;;;2.20;2.00;;;8.70;99.90;;;;;;5034965;28;20205;-90
2024/01/06 12:42:39;;;;;;;2.60;2.10;;;8.90;99.90;;;;;;5040654;28;20194;-90
2024/01/06 12:45:06;;;;;;;2.70;2.50;;;8.90;99.90;;;;;;5037299;28;20201;-88
2024/01/06 12:47:32;;;;;;;1.92;1.83;;;8.50;99.90;;;;;;5042314;28;20549;-87
2024/01/06 12:49:57;;;;;;;2.70;2.50;;;8.70;99.90;;;;;;5039098;28;20576;-90
2024/01/06 12:52:24;;;;;;;2.33;2.13;;;9.00;99.90;;;;;;5039127;28;20186;-89